Santa Fe do Sul, Brazil
Current Conditions -  °F | °C
As of 10:00 PM on Saturday 20 Dec 2014 (Local Time) from SBDN Reporting Station
Broken Clouds Broken Clouds  
Wind Chill: 82°   Ceiling: 8000
Heat Index: 85°   Visibility: 6mi
Dew Point: 68°   Wind: 10mph
Humidity: 62%   Direction: 30°NNE
Pressure: 29.77"   Gusts: NA
Location:  20.21°S, 50.93°W
Report Text: SBDN 210000Z 03009KT 9999 FEW045 BKN080 28/20 Q1008
Loading
Personal Weather Stations






























Interactive Weather Map New forecast layout! Learn more

10-Day Weather Forecast

Advertisements
Track Severe Weather on mobile